Time,TemperatureF,DewpointF,PressureIn,WindDirection,WindDirectionDegrees,WindSpeedMPH,WindSpeedGustMPH,Humidity,HourlyPrecipIn,Conditions,Clouds,dailyrainin,SoftwareType,DateUTC
2013-01-09 00:00:00,40.0,-53.3,29.96,East,90,0.0,3.0,1,0.00,,,0.00,Weather View 32 v70,2013-01-09 08:00:00,
2013-01-09 00:30:00,39.0,-54.0,29.95,East,90,0.0,3.0,1,0.00,,,0.00,Weather View 32 v70,2013-01-09 08:30:00,
2013-01-09 01:00:00,38.0,-54.6,29.95,SSW,202,0.0,0.0,1,0.00,,,0.00,Weather View 32 v70,2013-01-09 09:00:00,
2013-01-09 01:30:00,39.0,-54.0,29.95,SSW,202,0.0,0.0,1,0.00,,,0.00,Weather View 32 v70,2013-01-09 09:30:00,
2013-01-09 02:00:00,38.0,-54.6,29.95,SSW,202,0.0,0.0,1,0.00,,,0.00,Weather View 32 v70,2013-01-09 10:00:00,
2013-01-09 02:30:00,38.0,-54.6,29.96,SSW,202,0.0,0.0,1,0.00,,,0.00,Weather View 32 v70,2013-01-09 10:30:00,
2013-01-09 03:00:00,38.0,-54.6,29.94,SSW,202,0.0,0.0,1,0.00,,,0.00,Weather View 32 v70,2013-01-09 11:00:00,
2013-01-09 03:30:00,37.0,-55.2,29.93,SSW,202,0.0,0.0,1,0.00,,,0.00,Weather View 32 v70,2013-01-09 11:30:00,
2013-01-09 04:00:00,37.0,-55.2,29.90,SSW,202,0.0,0.0,1,0.00,,,0.00,Weather View 32 v70,2013-01-09 12:00:00,
2013-01-09 04:30:00,36.0,-55.8,29.89,SSW,202,0.0,0.0,1,0.00,,,0.00,Weather View 32 v70,2013-01-09 12:30:00,
2013-01-09 05:00:00,36.0,-55.8,29.89,SSW,202,0.0,0.0,1,0.00,,,0.00,Weather View 32 v70,2013-01-09 13:00:00,
2013-01-09 05:30:00,35.0,-56.4,29.88,SSW,202,0.0,0.0,1,0.00,,,0.00,Weather View 32 v70,2013-01-09 13:30:00,
2013-01-09 06:00:00,35.0,-56.4,29.89,ENE,67,0.0,0.0,1,0.00,,,0.00,Weather View 32 v70,2013-01-09 14:00:00,
2013-01-09 06:30:00,34.0,-57.1,29.89,ENE,67,0.0,0.0,1,0.00,,,0.00,Weather View 32 v70,2013-01-09 14:30:00,
2013-01-09 07:00:00,35.0,-56.4,29.88,ENE,67,0.0,0.0,1,0.00,,,0.00,Weather View 32 v70,2013-01-09 15:00:00,
2013-01-09 07:30:00,35.0,-56.4,29.88,ENE,67,0.0,2.0,1,0.00,,,0.00,Weather View 32 v70,2013-01-09 15:30:00,
2013-01-09 08:00:00,37.0,-55.2,29.89,SSE,157,0.0,2.0,1,0.00,,,0.00,Weather View 32 v70,2013-01-09 16:00:00,
2013-01-09 08:30:00,40.0,-53.3,29.91,SSE,157,0.0,3.0,1,0.00,,,0.00,Weather View 32 v70,2013-01-09 16:30:00,
2013-01-09 09:00:00,43.0,-51.5,29.93,South,180,0.0,4.0,1,0.00,,,0.00,Weather View 32 v70,2013-01-09 17:00:00,
2013-01-09 09:30:00,46.0,-49.6,29.94,ESE,112,0.0,7.0,1,0.00,,,0.00,Weather View 32 v70,2013-01-09 17:30:00,
2013-01-09 10:00:00,49.0,-47.8,29.94,ESE,112,1.0,8.0,1,0.00,,,0.00,Weather View 32 v70,2013-01-09 18:00:00,
2013-01-09 10:30:00,52.0,-46.0,29.93,SE,135,2.0,8.0,1,0.00,,,0.00,Weather View 32 v70,2013-01-09 18:30:00,
2013-01-09 11:00:00,54.0,43.3,29.92,ESE,112,2.0,8.0,67,0.00,,,0.00,Weather View 32 v70,2013-01-09 19:00:00,
2013-01-09 11:30:00,57.0,49.5,29.92,ESE,112,0.0,6.0,76,0.00,,,0.00,Weather View 32 v70,2013-01-09 19:30:00,
2013-01-09 12:00:00,60.0,54.5,29.91,NNE,22,0.0,6.0,82,0.00,,,0.00,Weather View 32 v70,2013-01-09 20:00:00,
2013-01-09 12:30:00,61.0,55.1,29.90,SSW,202,0.0,0.0,81,0.00,,,0.00,Weather View 32 v70,2013-01-09 20:30:00,
2013-01-09 13:00:00,62.0,55.7,29.89,NW,315,0.0,0.0,80,0.00,,,0.00,Weather View 32 v70,2013-01-09 21:00:00,
2013-01-09 13:30:00,62.0,55.7,29.89,North,360,0.0,0.0,80,0.00,,,0.00,Weather View 32 v70,2013-01-09 21:30:00,
2013-01-09 14:00:00,62.0,55.4,29.87,NNW,337,0.0,0.0,79,0.00,,,0.00,Weather View 32 v70,2013-01-09 22:00:00,
2013-01-09 14:30:00,62.0,55.7,29.87,SSW,202,0.0,0.0,80,0.00,,,0.00,Weather View 32 v70,2013-01-09 22:30:00,
2013-01-09 15:00:00,60.0,54.5,29.87,NW,315,0.0,7.0,82,0.00,,,0.00,Weather View 32 v70,2013-01-09 23:00:00,
2013-01-09 15:30:00,58.0,50.8,29.85,NW,315,4.0,7.0,77,0.00,,,0.00,Weather View 32 v70,2013-01-09 23:30:00,
2013-01-09 16:00:00,57.0,46.9,29.83,West,270,0.0,7.0,69,0.00,,,0.00,Weather View 32 v70,2013-01-10 00:00:00,
2013-01-09 16:30:00,56.0,37.6,29.83,WNW,292,1.0,8.0,50,0.00,,,0.00,Weather View 32 v70,2013-01-10 00:30:00,
2013-01-09 17:00:00,54.0,21.6,29.81,WNW,292,5.0,8.0,28,0.00,,,0.00,Weather View 32 v70,2013-01-10 01:00:00,
2013-01-09 17:30:00,53.0,-2.2,29.80,WNW,292,0.0,8.0,10,0.00,,,0.00,Weather View 32 v70,2013-01-10 01:30:00,
2013-01-09 18:00:00,52.0,-46.0,29.79,SSE,157,0.0,5.0,1,0.00,,,0.00,Weather View 32 v70,2013-01-10 02:00:00,
2013-01-09 18:30:00,51.0,-46.6,29.80,SSW,202,0.0,2.0,1,0.00,,,0.00,Weather View 32 v70,2013-01-10 02:30:00,
2013-01-09 19:00:00,51.0,-46.6,29.80,WNW,292,2.0,6.0,1,0.00,,,0.00,Weather View 32 v70,2013-01-10 03:00:00,
2013-01-09 19:30:00,51.0,-46.6,29.81,WNW,292,1.0,6.0,1,0.00,,,0.00,Weather View 32 v70,2013-01-10 03:30:00,
2013-01-09 20:00:00,51.0,-46.6,29.82,NW,315,6.0,7.0,1,0.00,,,0.00,Weather View 32 v70,2013-01-10 04:00:00,
2013-01-09 20:30:00,50.0,-47.2,29.82,East,90,0.0,7.0,1,0.00,,,0.00,Weather View 32 v70,2013-01-10 04:30:00,
2013-01-09 21:00:00,50.0,-47.2,29.83,WNW,292,7.0,7.0,1,0.00,,,0.00,Weather View 32 v70,2013-01-10 05:00:00,
2013-01-09 21:30:00,50.0,-47.2,29.83,WNW,292,3.0,9.0,1,0.00,,,0.00,Weather View 32 v70,2013-01-10 05:30:00,
2013-01-09 21:33:00,50.0,-47.2,29.83,WNW,292,3.0,9.0,1,0.00,,,0.00,Weather View 32 v70,2013-01-10 05:33:00,
2013-01-09 22:00:00,49.0,-47.8,29.84,NW,315,7.0,9.0,1,0.00,,,0.00,Weather View 32 v70,2013-01-10 06:00:00,
2013-01-09 22:30:00,49.0,-47.8,29.85,SW,225,0.0,9.0,1,0.00,,,0.00,Weather View 32 v70,2013-01-10 06:30:00,
2013-01-09 23:00:00,49.0,-47.8,29.87,West,270,0.0,9.0,1,0.00,,,0.00,Weather View 32 v70,2013-01-10 07:00:00,
2013-01-09 23:30:00,49.0,36.5,29.87,NW,315,6.0,22.0,62,0.00,,,0.00,Weather View 32 v70,2013-01-10 07:30:00,